Time;durP1;ratioP1;P1;durP2;ratioP2;P2;SDS_P1;SDS_P2;PMS_P1;PMS_P2;Temp;Humidity;BMP_temperature;BMP_pressure;BME280_temperature;BME280_humidity;BME280_pressure;Samples;Min_cycle;Max_cycle;Signal;HPM_P1;HPM_P2
2023/06/30 00:00:34;;;;;;;0.10;0.10;;;15.70;99.90;;;;;;5074584;28;20035;-79
2023/06/30 00:03:00;;;;;;;0.00;0.00;;;15.70;99.90;;;;;;5063196;28;20040;-79
2023/06/30 00:05:26;;;;;;;0.00;0.00;;;15.80;99.90;;;;;;5068897;28;20021;-79
2023/06/30 00:07:58;;;;;;;0.00;0.00;;;16.10;99.90;;;;;;5065139;28;20028;-79
2023/06/30 00:10:25;;;;;;;0.00;0.00;;;16.10;99.90;;;;;;5074806;28;20036;-79
2023/06/30 00:12:51;;;;;;;0.00;0.00;;;16.20;99.90;;;;;;5074905;28;20079;-79
2023/06/30 00:15:17;;;;;;;0.00;0.00;;;16.00;99.90;;;;;;5074737;28;20485;-79
2023/06/30 00:17:43;;;;;;;0.00;0.00;;;16.20;99.90;;;;;;5074809;28;20059;-79
2023/06/30 00:20:09;;;;;;;0.10;0.10;;;16.00;99.90;;;;;;5073794;28;20056;-79
2023/06/30 00:22:35;;;;;;;0.00;0.00;;;15.90;99.90;;;;;;5073247;28;20150;-79
2023/06/30 00:25:02;;;;;;;0.10;0.10;;;16.00;99.90;;;;;;5074595;28;20028;-79
2023/06/30 00:27:27;;;;;;;0.00;0.00;;;16.00;99.90;;;;;;5075264;28;20077;-79
2023/06/30 00:29:53;;;;;;;0.52;0.52;;;15.70;99.90;;;;;;5073177;28;20456;-79
2023/06/30 00:32:20;;;;;;;0.00;0.00;;;15.60;99.90;;;;;;5074642;28;20024;-78
2023/06/30 00:34:45;;;;;;;0.00;0.00;;;15.70;99.90;;;;;;5074264;28;20020;-79
2023/06/30 00:37:12;;;;;;;0.00;0.00;;;15.80;99.90;;;;;;5072667;28;20036;-78
2023/06/30 00:39:39;;;;;;;0.00;0.00;;;15.90;99.90;;;;;;5073815;28;20025;-78
2023/06/30 00:42:04;;;;;;;0.00;0.00;;;15.80;99.90;;;;;;5072780;28;20127;-78
2023/06/30 00:44:30;;;;;;;0.00;0.00;;;15.80;99.90;;;;;;5072942;28;20120;-78
2023/06/30 00:47:00;;;;;;;0.00;0.00;;;15.60;99.90;;;;;;5065609;28;20039;-78
2023/06/30 00:49:27;;;;;;;0.00;0.00;;;15.40;99.90;;;;;;5053773;28;20017;-79
2023/06/30 00:51:53;;;;;;;0.30;0.30;;;15.60;99.90;;;;;;5052712;28;20033;-79
2023/06/30 00:54:19;;;;;;;0.00;0.00;;;15.50;99.90;;;;;;5053999;28;20447;-79
2023/06/30 00:56:48;;;;;;;0.00;0.00;;;15.40;99.90;;;;;;5052302;28;20029;-79
2023/06/30 00:59:13;;;;;;;0.10;0.10;;;15.40;99.90;;;;;;5054019;28;20017;-79
2023/06/30 01:02:02;;;;;;;0.10;0.10;;;15.40;99.90;;;;;;5053695;28;20374;-80
2023/06/30 01:04:37;;;;;;;0.00;0.00;;;15.30;99.90;;;;;;5053903;28;20024;-78
2023/06/30 01:07:38;;;;;;;0.00;0.00;;;15.20;99.90;;;;;;5052379;28;20090;-79
2023/06/30 01:10:14;;;;;;;0.00;0.00;;;15.40;99.90;;;;;;5040481;28;20505;-79
2023/06/30 01:12:42;;;;;;;0.00;0.00;;;15.30;99.90;;;;;;5052167;28;20079;-79
2023/06/30 01:15:12;;;;;;;0.00;0.00;;;15.30;99.90;;;;;;5052429;28;20029;-78
2023/06/30 01:17:47;;;;;;;0.00;0.00;;;15.30;99.90;;;;;;5051948;28;20440;-79
2023/06/30 01:20:16;;;;;;;0.00;0.00;;;15.20;99.90;;;;;;5052204;28;20029;-79
2023/06/30 01:22:56;;;;;;;0.00;0.00;;;15.20;99.90;;;;;;5052195;28;20049;-79
2023/06/30 01:25:26;;;;;;;0.20;0.20;;;15.20;99.90;;;;;;5052242;28;20482;-78
2023/06/30 01:27:53;;;;;;;0.00;0.00;;;15.20;99.90;;;;;;5051942;28;20549;-79
2023/06/30 01:30:21;;;;;;;0.00;0.00;;;15.10;99.90;;;;;;5050520;28;20021;-78
2023/06/30 01:32:50;;;;;;;0.00;0.00;;;15.10;99.90;;;;;;5053316;28;20025;-79
2023/06/30 01:35:16;;;;;;;0.00;0.00;;;14.90;99.90;;;;;;5052277;28;20028;-78
2023/06/30 01:37:42;;;;;;;0.00;0.00;;;14.70;99.90;;;;;;5053201;28;20035;-78
2023/06/30 01:40:08;;;;;;;0.10;0.10;;;14.70;99.90;;;;;;5052863;28;20025;-79
2023/06/30 01:42:36;;;;;;;0.20;0.20;;;14.70;99.90;;;;;;5053032;28;20072;-78
2023/06/30 01:45:03;;;;;;;0.00;0.00;;;14.70;99.90;;;;;;5053097;28;20071;-78
2023/06/30 01:47:31;;;;;;;0.00;0.00;;;14.90;99.90;;;;;;5051831;28;20175;-78
2023/06/30 01:49:57;;;;;;;0.00;0.00;;;14.80;99.90;;;;;;5052851;28;20033;-78
2023/06/30 01:52:23;;;;;;;0.08;0.08;;;14.80;99.90;;;;;;5051904;28;20031;-79
2023/06/30 01:54:49;;;;;;;0.00;0.00;;;14.90;99.90;;;;;;5052661;28;20029;-79
2023/06/30 01:57:15;;;;;;;0.00;0.00;;;15.00;99.90;;;;;;5051536;28;20025;-78
2023/06/30 01:59:41;;;;;;;0.20;0.20;;;15.10;99.90;;;;;;5051586;28;20531;-78
2023/06/30 02:02:07;;;;;;;0.00;0.00;;;14.80;99.90;;;;;;5051364;28;20033;-78
2023/06/30 02:04:34;;;;;;;0.00;0.00;;;14.80;99.90;;;;;;5035468;28;20024;-79
2023/06/30 02:06:59;;;;;;;0.00;0.00;;;14.80;99.90;;;;;;5051294;28;20436;-79
2023/06/30 02:09:25;;;;;;;0.00;0.00;;;14.80;99.90;;;;;;5051359;28;20025;-79
2023/06/30 02:11:51;;;;;;;0.00;0.00;;;14.70;99.90;;;;;;5051163;28;20482;-78
2023/06/30 02:14:17;;;;;;;0.00;0.00;;;14.90;99.90;;;;;;5051473;28;20023;-79
2023/06/30 02:16:43;;;;;;;0.00;0.00;;;15.10;99.90;;;;;;5052557;28;20485;-79
2023/06/30 02:19:10;;;;;;;0.00;0.00;;;15.20;99.90;;;;;;5052663;28;20141;-79
2023/06/30 02:21:35;;;;;;;0.00;0.00;;;15.20;99.90;;;;;;5052513;28;20045;-79
2023/06/30 02:24:01;;;;;;;0.00;0.00;;;15.20;99.90;;;;;;5052259;28;20108;-79
2023/06/30 02:26:27;;;;;;;0.05;0.05;;;15.30;99.90;;;;;;5051177;28;20076;-78
2023/06/30 02:28:53;;;;;;;0.00;0.00;;;15.20;99.90;;;;;;5052488;28;20025;-77
2023/06/30 02:31:18;;;;;;;0.00;0.00;;;15.30;99.90;;;;;;5052610;28;20033;-78
2023/06/30 02:33:44;;;;;;;0.00;0.00;;;15.20;99.90;;;;;;5052456;28;20033;-78
2023/06/30 02:36:10;;;;;;;0.15;0.15;;;14.80;99.90;;;;;;5052462;28;20420;-79
2023/06/30 02:38:36;;;;;;;0.00;0.00;;;14.50;99.90;;;;;;5050925;28;20462;-78
2023/06/30 02:41:02;;;;;;;0.00;0.00;;;14.30;99.90;;;;;;5052252;28;20036;-79
2023/06/30 02:43:27;;;;;;;0.00;0.00;;;14.20;99.90;;;;;;5051044;28;20036;-79
2023/06/30 02:45:53;;;;;;;0.00;0.00;;;14.30;99.90;;;;;;5051217;28;20474;-79
2023/06/30 02:48:19;;;;;;;0.00;0.00;;;14.30;99.90;;;;;;5034493;28;20021;-79
2023/06/30 02:50:45;;;;;;;0.00;0.00;;;14.40;99.90;;;;;;5052519;28;20078;-78
2023/06/30 02:53:14;;;;;;;4.57;1.38;;;14.40;99.90;;;;;;5050563;28;20049;-78
2023/06/30 02:55:40;;;;;;;0.00;0.00;;;14.30;99.90;;;;;;5051171;28;20021;-79
2023/06/30 02:58:09;;;;;;;0.00;0.00;;;14.30;99.90;;;;;;5050970;28;20124;-78
2023/06/30 03:00:37;;;;;;;0.00;0.00;;;14.60;99.90;;;;;;5051235;28;20100;-79
2023/06/30 03:03:04;;;;;;;0.00;0.00;;;14.80;99.90;;;;;;5054763;28;20040;-78
2023/06/30 03:05:30;;;;;;;0.00;0.00;;;15.00;99.90;;;;;;5054817;28;20029;-78
2023/06/30 03:07:56;;;;;;;0.00;0.00;;;14.90;99.90;;;;;;5054435;28;20476;-79
2023/06/30 03:10:22;;;;;;;0.00;0.00;;;14.80;99.90;;;;;;5055747;28;20028;-78
2023/06/30 03:12:47;;;;;;;0.10;0.10;;;14.60;99.90;;;;;;5054562;28;20476;-79
2023/06/30 03:15:14;;;;;;;0.10;0.10;;;14.60;99.90;;;;;;5054824;28;20083;-79
2023/06/30 03:17:40;;;;;;;0.00;0.00;;;14.30;99.90;;;;;;5054498;28;20028;-78
2023/06/30 03:20:11;;;;;;;0.00;0.00;;;14.00;99.90;;;;;;5054713;28;20029;-78
2023/06/30 03:22:39;;;;;;;0.10;0.10;;;14.10;99.90;;;;;;5053863;28;20150;-78
2023/06/30 03:25:05;;;;;;;0.00;0.00;;;14.00;99.90;;;;;;5054739;28;20025;-78
2023/06/30 03:27:32;;;;;;;1.27;1.23;;;13.90;99.90;;;;;;5055163;28;20082;-79
2023/06/30 03:29:58;;;;;;;0.17;0.17;;;14.00;99.90;;;;;;5054347;28;20060;-78
2023/06/30 03:32:23;;;;;;;0.00;0.00;;;13.80;99.90;;;;;;5055566;28;20029;-78
2023/06/30 03:34:49;;;;;;;0.03;0.03;;;13.90;99.90;;;;;;5053984;28;20434;-79
2023/06/30 03:37:15;;;;;;;0.32;0.32;;;13.90;99.90;;;;;;5054767;28;20381;-78
2023/06/30 03:39:41;;;;;;;0.00;0.00;;;13.90;99.90;;;;;;5053533;28;20013;-78
2023/06/30 03:42:07;;;;;;;0.00;0.00;;;13.80;99.90;;;;;;5053838;28;20098;-78
2023/06/30 03:44:36;;;;;;;0.00;0.00;;;13.60;99.90;;;;;;5037702;28;20110;-78
2023/06/30 03:47:04;;;;;;;0.00;0.00;;;13.70;99.90;;;;;;5054004;28;20024;-78
2023/06/30 03:49:30;;;;;;;0.00;0.00;;;13.90;99.90;;;;;;5053879;28;20095;-78
2023/06/30 03:51:56;;;;;;;0.00;0.00;;;14.10;99.90;;;;;;5055064;28;20021;-78
2023/06/30 03:54:21;;;;;;;0.00;0.00;;;14.30;99.90;;;;;;5053901;28;20078;-78
2023/06/30 03:56:47;;;;;;;0.00;0.00;;;14.30;99.90;;;;;;5053927;28;20036;-78
2023/06/30 03:59:14;;;;;;;0.03;0.03;;;13.90;99.90;;;;;;5053664;28;20541;-79
2023/06/30 04:01:40;;;;;;;0.00;0.00;;;13.60;99.90;;;;;;5054952;28;20136;-79
2023/06/30 04:04:06;;;;;;;0.00;0.00;;;13.60;99.90;;;;;;5054522;28;20108;-79
2023/06/30 04:06:33;;;;;;;0.10;0.10;;;13.80;99.90;;;;;;5054684;28;20025;-79
2023/06/30 04:08:59;;;;;;;0.10;0.10;;;13.80;99.90;;;;;;5054623;28;20090;-79
2023/06/30 04:11:25;;;;;;;0.38;0.38;;;13.80;99.90;;;;;;5054688;28;20043;-79
2023/06/30 04:13:51;;;;;;;0.03;0.03;;;13.90;99.90;;;;;;5052993;28;20037;-79
2023/06/30 04:16:17;;;;;;;0.00;0.00;;;13.90;99.90;;;;;;5054831;28;20040;-79
2023/06/30 04:18:43;;;;;;;0.00;0.00;;;14.10;99.90;;;;;;5054504;28;20490;-79
2023/06/30 04:21:09;;;;;;;0.10;0.10;;;14.00;99.90;;;;;;5054229;28;20025;-79
2023/06/30 04:23:36;;;;;;;0.13;0.13;;;14.10;99.90;;;;;;5054654;28;20090;-79
2023/06/30 04:26:04;;;;;;;0.00;0.00;;;14.10;99.90;;;;;;5054232;28;20027;-79
2023/06/30 04:28:30;;;;;;;0.00;0.00;;;14.20;99.90;;;;;;5054743;28;20021;-78
2023/06/30 04:30:58;;;;;;;0.47;0.47;;;14.20;99.90;;;;;;5052875;28;20025;-79
2023/06/30 04:33:24;;;;;;;0.20;0.20;;;14.10;99.90;;;;;;5054271;28;20033;-78
2023/06/30 04:35:50;;;;;;;0.10;0.10;;;14.00;99.90;;;;;;5054443;28;20025;-78
2023/06/30 04:38:19;;;;;;;0.00;0.00;;;14.10;99.90;;;;;;5054389;28;20040;-78
2023/06/30 04:40:46;;;;;;;0.03;0.03;;;14.20;99.90;;;;;;5054227;28;20834;-78
2023/06/30 04:43:13;;;;;;;0.00;0.00;;;14.30;99.90;;;;;;5052767;28;20067;-78
2023/06/30 04:45:39;;;;;;;0.00;0.00;;;14.50;99.90;;;;;;5054269;28;20029;-77
2023/06/30 04:48:07;;;;;;;0.20;0.20;;;14.60;99.90;;;;;;5053795;28;20021;-78
2023/06/30 04:50:33;;;;;;;0.00;0.00;;;14.50;99.90;;;;;;5054204;28;20021;-78
2023/06/30 04:52:59;;;;;;;0.00;0.00;;;14.80;99.90;;;;;;5052741;28;20024;-78
2023/06/30 04:55:25;;;;;;;0.43;0.43;;;15.00;99.90;;;;;;5053984;28;20440;-78
2023/06/30 04:57:53;;;;;;;0.03;0.03;;;14.70;99.90;;;;;;5052807;28;20384;-79
2023/06/30 05:00:19;;;;;;;0.40;0.28;;;14.60;99.90;;;;;;5053644;28;20037;-77
2023/06/30 05:02:45;;;;;;;0.00;0.00;;;14.80;99.90;;;;;;5046123;28;20037;-76
2023/06/30 05:05:12;;;;;;;0.00;0.00;;;14.50;99.90;;;;;;5046179;28;20021;-77
2023/06/30 05:07:38;;;;;;;0.08;0.08;;;14.70;99.90;;;;;;5051962;28;20028;-77
2023/06/30 05:10:04;;;;;;;0.00;0.00;;;14.70;99.90;;;;;;5053201;28;20017;-78
2023/06/30 05:12:30;;;;;;;0.00;0.00;;;15.20;99.90;;;;;;5053439;28;20040;-77
2023/06/30 05:14:55;;;;;;;0.00;0.00;;;15.00;99.90;;;;;;5052442;28;20469;-78
2023/06/30 05:17:22;;;;;;;2.00;1.05;;;15.30;99.90;;;;;;5052234;28;20025;-79
2023/06/30 05:19:48;;;;;;;0.10;0.10;;;15.40;99.90;;;;;;5052748;28;20109;-78
2023/06/30 05:22:14;;;;;;;0.00;0.00;;;15.20;99.90;;;;;;5053083;28;20108;-78
2023/06/30 05:24:40;;;;;;;0.00;0.00;;;15.50;99.90;;;;;;5050945;28;20025;-76
2023/06/30 05:27:06;;;;;;;0.00;0.00;;;15.80;99.90;;;;;;5052119;28;20083;-76
2023/06/30 05:29:32;;;;;;;0.10;0.10;;;16.00;99.90;;;;;;5052065;28;20015;-79
2023/06/30 05:31:58;;;;;;;0.00;0.00;;;15.60;99.90;;;;;;5052115;28;20033;-75
2023/06/30 05:34:23;;;;;;;0.10;0.10;;;15.60;99.90;;;;;;5052389;28;20036;-78
2023/06/30 05:36:49;;;;;;;0.50;0.50;;;15.30;99.90;;;;;;5052762;28;20017;-75
2023/06/30 05:39:15;;;;;;;0.55;0.55;;;15.10;99.90;;;;;;5050894;28;20071;-76
2023/06/30 05:41:41;;;;;;;2.00;0.90;;;15.10;99.90;;;;;;5052238;28;20052;-74
2023/06/30 05:44:07;;;;;;;0.15;0.15;;;15.20;99.90;;;;;;5052451;28;20390;-76
2023/06/30 05:46:39;;;;;;;2.72;1.65;;;15.10;99.90;;;;;;5053004;28;20040;-75
2023/06/30 05:49:05;;;;;;;0.00;0.00;;;15.40;99.90;;;;;;5053226;28;20375;-75
2023/06/30 05:51:35;;;;;;;0.00;0.00;;;15.90;99.90;;;;;;5052465;28;20549;-74
2023/06/30 05:54:02;;;;;;;0.00;0.00;;;16.50;99.90;;;;;;5052208;28;20116;-75
2023/06/30 05:56:29;;;;;;;0.50;0.50;;;16.70;99.90;;;;;;5053110;28;20021;-75
2023/06/30 05:58:55;;;;;;;0.00;0.00;;;16.80;99.90;;;;;;5052251;28;20032;-74
2023/06/30 06:01:20;;;;;;;0.25;0.20;;;16.80;99.90;;;;;;5051864;28;20033;-74
2023/06/30 06:03:47;;;;;;;0.15;0.15;;;16.70;99.90;;;;;;5048347;28;20089;-78
2023/06/30 06:06:13;;;;;;;5.47;1.10;;;17.00;99.90;;;;;;5034303;28;20028;-79
2023/06/30 06:08:40;;;;;;;0.20;0.20;;;17.00;99.90;;;;;;5052662;28;20386;-77
2023/06/30 06:11:06;;;;;;;0.75;0.75;;;17.30;99.90;;;;;;5050226;28;20025;-78
2023/06/30 06:13:36;;;;;;;0.20;0.20;;;17.10;99.90;;;;;;5055233;28;20032;-74
2023/06/30 06:16:03;;;;;;;7.13;0.88;;;16.80;99.90;;;;;;5048690;28;20688;-74
2023/06/30 06:18:29;;;;;;;0.20;0.10;;;16.90;99.90;;;;;;5051007;28;20024;-81
2023/06/30 06:20:56;;;;;;;0.00;0.00;;;17.10;99.90;;;;;;5049587;28;20033;-75
2023/06/30 06:23:22;;;;;;;0.50;0.40;;;17.10;99.90;;;;;;5049979;28;20055;-75
2023/06/30 06:25:49;;;;;;;0.00;0.00;;;16.90;99.90;;;;;;5051291;28;20475;-76
2023/06/30 06:28:15;;;;;;;2.30;0.65;;;17.10;99.90;;;;;;5049108;28;20539;-76
2023/06/30 06:30:41;;;;;;;0.30;0.30;;;17.20;99.90;;;;;;5049565;28;20029;-76
2023/06/30 06:33:07;;;;;;;0.03;0.03;;;17.60;99.90;;;;;;5043106;28;20040;-76
2023/06/30 06:35:36;;;;;;;0.22;0.22;;;17.70;99.90;;;;;;5054793;28;20100;-76
2023/06/30 06:38:02;;;;;;;3.55;1.40;;;17.90;99.90;;;;;;5057422;28;20381;-74
2023/06/30 06:40:30;;;;;;;2.85;1.63;;;17.70;99.90;;;;;;5056395;28;20025;-75
2023/06/30 06:42:56;;;;;;;0.32;0.22;;;17.80;99.90;;;;;;5046878;28;20055;-75
2023/06/30 06:45:26;;;;;;;2.75;0.95;;;17.40;99.90;;;;;;5048739;28;20053;-75
2023/06/30 06:48:24;;;;;;;1.83;0.90;;;17.20;99.90;;;;;;5068032;28;20022;-77
2023/06/30 06:50:55;;;;;;;0.10;0.10;;;17.30;99.90;;;;;;5055676;28;20083;-75
2023/06/30 06:53:23;;;;;;;3.53;1.35;;;17.40;99.90;;;;;;5055042;28;20029;-75
2023/06/30 06:55:51;;;;;;;0.10;0.10;;;17.30;99.90;;;;;;5054744;28;20036;-76
2023/06/30 06:58:17;;;;;;;17.58;0.70;;;17.30;99.90;;;;;;5054474;28;20031;-76
2023/06/30 07:00:47;;;;;;;0.03;0.03;;;17.40;99.90;;;;;;5053705;28;20445;-75
2023/06/30 07:03:14;;;;;;;0.52;0.52;;;17.50;99.90;;;;;;5060023;28;20040;-77
2023/06/30 07:05:41;;;;;;;0.20;0.20;;;17.70;99.90;;;;;;5053367;28;20017;-78
2023/06/30 07:08:07;;;;;;;7.88;0.77;;;17.70;99.90;;;;;;5054101;28;20057;-77
2023/06/30 07:10:33;;;;;;;0.20;0.20;;;17.80;99.90;;;;;;5055230;28;20017;-77
2023/06/30 07:13:00;;;;;;;0.20;0.20;;;18.50;99.90;;;;;;5054433;28;20389;-77
2023/06/30 07:15:26;;;;;;;0.20;0.20;;;18.90;99.90;;;;;;5050775;28;20017;-76
2023/06/30 07:17:52;;;;;;;0.35;0.35;;;19.10;99.90;;;;;;5054738;28;20075;-78
2023/06/30 07:20:18;;;;;;;0.40;0.40;;;19.30;99.90;;;;;;5054497;28;20044;-79
2023/06/30 07:22:44;;;;;;;2.30;0.47;;;19.40;99.90;;;;;;5053765;28;20397;-76
2023/06/30 07:25:10;;;;;;;0.00;0.00;;;19.20;99.90;;;;;;5053526;28;20036;-75
2023/06/30 07:27:37;;;;;;;0.20;0.20;;;19.30;99.90;;;;;;5054131;28;20111;-75
2023/06/30 07:30:05;;;;;;;0.25;0.25;;;19.40;99.90;;;;;;5054415;28;20028;-77
2023/06/30 07:32:34;;;;;;;0.10;0.10;;;19.20;99.90;;;;;;5054366;28;20033;-75
2023/06/30 07:35:02;;;;;;;0.00;0.00;;;19.40;99.90;;;;;;5054311;28;20037;-76
2023/06/30 07:37:28;;;;;;;2.35;0.43;;;19.50;99.90;;;;;;5052624;28;20027;-75
2023/06/30 07:39:54;;;;;;;0.43;0.43;;;19.40;99.90;;;;;;5054618;28;20029;-74
2023/06/30 07:42:20;;;;;;;0.00;0.00;;;19.70;99.90;;;;;;5053939;28;20039;-76
2023/06/30 07:44:46;;;;;;;0.32;0.32;;;19.90;99.90;;;;;;5049318;28;20068;-76
2023/06/30 07:47:12;;;;;;;0.00;0.00;;;20.10;99.90;;;;;;5053946;28;20028;-75
2023/06/30 07:49:39;;;;;;;0.00;0.00;;;20.40;99.90;;;;;;5053198;28;20029;-75
2023/06/30 07:52:05;;;;;;;6.10;0.82;;;19.90;99.90;;;;;;5052753;28;20032;-75
2023/06/30 07:54:31;;;;;;;3.17;0.82;;;19.50;99.90;;;;;;5042542;28;20029;-74
2023/06/30 07:56:56;;;;;;;0.00;0.00;;;19.20;99.90;;;;;;5042471;28;20363;-75
2023/06/30 07:59:23;;;;;;;0.00;0.00;;;19.50;99.90;;;;;;5045669;28;20103;-74
2023/06/30 08:01:49;;;;;;;1.00;0.98;;;19.90;99.90;;;;;;5052805;28;20033;-75
2023/06/30 08:04:14;;;;;;;0.10;0.10;;;19.80;99.90;;;;;;5053585;28;20037;-76
2023/06/30 08:06:40;;;;;;;0.57;0.45;;;20.30;99.90;;;;;;5046607;28;20036;-75
2023/06/30 08:09:06;;;;;;;0.00;0.00;;;20.60;99.90;;;;;;5054559;28;20063;-75
2023/06/30 08:11:32;;;;;;;1.95;0.47;;;20.40;99.90;;;;;;5053378;28;20032;-77
2023/06/30 08:14:01;;;;;;;0.00;0.00;;;20.50;99.90;;;;;;5044148;28;20036;-76
2023/06/30 08:16:26;;;;;;;0.88;0.50;;;20.40;99.90;;;;;;5054655;28;20024;-76
2023/06/30 08:18:52;;;;;;;1.27;0.47;;;20.30;99.90;;;;;;5054640;28;20037;-76
2023/06/30 08:21:18;;;;;;;1.50;1.40;;;20.10;99.90;;;;;;5053261;28;20021;-76
2023/06/30 08:23:44;;;;;;;2.22;1.50;;;20.10;99.90;;;;;;5054437;28;20025;-76
2023/06/30 08:26:10;;;;;;;0.05;0.05;;;20.10;99.90;;;;;;5052255;28;20363;-75
2023/06/30 08:28:36;;;;;;;0.10;0.10;;;20.40;99.90;;;;;;5053256;28;20028;-77
2023/06/30 08:31:02;;;;;;;0.00;0.00;;;20.40;99.90;;;;;;5044515;28;20025;-76
2023/06/30 08:33:29;;;;;;;1.08;0.85;;;20.30;99.90;;;;;;5053215;28;20029;-76
2023/06/30 08:35:56;;;;;;;0.00;0.00;;;20.50;99.60;;;;;;5054169;28;20056;-76
2023/06/30 08:38:22;;;;;;;0.52;0.52;;;20.60;99.90;;;;;;5054290;28;20501;-76
2023/06/30 08:40:48;;;;;;;0.38;0.32;;;20.90;99.00;;;;;;5054072;28;20493;-77
2023/06/30 08:43:15;;;;;;;0.30;0.30;;;20.90;98.60;;;;;;5053837;28;20059;-76
2023/06/30 08:45:43;;;;;;;0.00;0.00;;;21.10;98.70;;;;;;5054547;28;20115;-76
2023/06/30 08:48:09;;;;;;;0.08;0.08;;;20.90;98.60;;;;;;5054161;28;20029;-76
2023/06/30 08:50:35;;;;;;;0.00;0.00;;;21.40;98.80;;;;;;5054010;28;20090;-76
2023/06/30 08:53:03;;;;;;;1.00;0.47;;;21.20;98.80;;;;;;5053822;28;20068;-76
2023/06/30 08:55:29;;;;;;;0.22;0.22;;;21.30;98.50;;;;;;5053690;28;20071;-76
2023/06/30 08:57:57;;;;;;;1.67;0.77;;;21.20;99.90;;;;;;5054042;28;20381;-76
2023/06/30 09:00:24;;;;;;;15.90;6.25;;;20.90;98.60;;;;;;5049742;28;20017;-75
2023/06/30 09:02:51;;;;;;;0.00;0.00;;;20.60;98.70;;;;;;5041597;28;20505;-76
2023/06/30 09:05:17;;;;;;;1.67;0.73;;;20.50;99.10;;;;;;5051732;28;20029;-76
2023/06/30 09:07:52;;;;;;;4.97;0.70;;;20.80;99.50;;;;;;5051851;28;20029;-75
2023/06/30 09:10:18;;;;;;;0.40;0.40;;;21.00;99.20;;;;;;5051492;28;20493;-76
2023/06/30 09:12:47;;;;;;;3.25;0.47;;;21.10;99.10;;;;;;5052944;28;20029;-78
2023/06/30 09:15:18;;;;;;;0.98;0.98;;;21.40;98.40;;;;;;5052678;28;20033;-75
2023/06/30 09:17:44;;;;;;;0.98;0.63;;;22.00;98.00;;;;;;5050473;28;20108;-76
2023/06/30 09:20:12;;;;;;;3.00;0.57;;;21.70;96.40;;;;;;5051834;28;20147;-75
2023/06/30 09:22:42;;;;;;;1.25;0.32;;;21.30;96.10;;;;;;5051921;28;20029;-75
2023/06/30 09:25:26;;;;;;;0.80;0.57;;;20.90;97.00;;;;;;5052159;28;21455;-75
2023/06/30 09:27:55;;;;;;;0.20;0.20;;;21.10;97.50;;;;;;5052455;28;20032;-75
2023/06/30 09:30:34;;;;;;;0.10;0.10;;;21.50;98.20;;;;;;5048905;28;20021;-74
2023/06/30 09:33:01;;;;;;;2.75;0.88;;;21.30;97.60;;;;;;5050582;28;20047;-74
2023/06/30 09:35:40;;;;;;;1.38;1.23;;;21.30;96.30;;;;;;5052329;28;20101;-75
2023/06/30 09:38:17;;;;;;;0.30;0.30;;;21.20;96.50;;;;;;5046287;28;20037;-75
2023/06/30 09:40:45;;;;;;;1.55;0.32;;;21.60;96.60;;;;;;5038363;28;20125;-74
2023/06/30 09:43:22;;;;;;;0.30;0.30;;;21.70;96.40;;;;;;5050482;28;20059;-74
2023/06/30 09:45:57;;;;;;;1.52;0.50;;;22.00;96.20;;;;;;5048320;28;20083;-74
2023/06/30 09:48:31;;;;;;;1.55;1.30;;;22.30;95.10;;;;;;5048783;28;20497;-75
2023/06/30 09:50:57;;;;;;;0.20;0.20;;;22.00;95.80;;;;;;5048206;28;20030;-74
2023/06/30 09:53:23;;;;;;;0.57;0.57;;;22.50;95.50;;;;;;5054323;28;20017;-74
2023/06/30 09:55:50;;;;;;;0.57;0.57;;;22.80;94.90;;;;;;5050732;28;20041;-74
2023/06/30 09:58:17;;;;;;;0.00;0.00;;;22.80;94.10;;;;;;5051221;28;20043;-76
2023/06/30 10:00:43;;;;;;;0.68;0.63;;;22.70;94.60;;;;;;5050865;28;20466;-75
2023/06/30 10:03:09;;;;;;;0.10;0.10;;;22.30;93.90;;;;;;5047857;28;20409;-74
2023/06/30 10:05:38;;;;;;;0.52;0.22;;;21.80;95.20;;;;;;5033306;28;20024;-74
2023/06/30 10:08:04;;;;;;;0.08;0.08;;;22.30;95.00;;;;;;5043325;28;20082;-74
2023/06/30 10:10:31;;;;;;;0.00;0.00;;;22.30;94.60;;;;;;5051475;28;20055;-75
2023/06/30 10:12:58;;;;;;;0.15;0.15;;;22.30;95.40;;;;;;5051443;28;20470;-75
2023/06/30 10:15:25;;;;;;;7.00;0.93;;;23.00;94.60;;;;;;5051636;28;20036;-74
2023/06/30 10:17:53;;;;;;;8.77;0.40;;;21.70;95.10;;;;;;5051601;28;20017;-74
2023/06/30 10:20:19;;;;;;;0.52;0.52;;;21.80;96.20;;;;;;5050391;28;20021;-75
2023/06/30 10:22:46;;;;;;;0.00;0.00;;;21.90;95.80;;;;;;5050858;28;20389;-75
2023/06/30 10:25:15;;;;;;;0.65;0.28;;;22.30;95.40;;;;;;5050669;28;20029;-75
2023/06/30 10:27:42;;;;;;;2.75;0.82;;;22.00;94.90;;;;;;5051063;28;20029;-75
2023/06/30 10:30:09;;;;;;;1.08;0.55;;;21.90;94.10;;;;;;5050595;28;20033;-75
2023/06/30 10:32:35;;;;;;;0.20;0.20;;;22.10;93.80;;;;;;5051070;28;20035;-75
2023/06/30 10:35:01;;;;;;;1.55;0.68;;;22.40;94.10;;;;;;5050387;28;20048;-75
2023/06/30 10:37:27;;;;;;;0.47;0.40;;;22.30;93.90;;;;;;5049740;28;20029;-74
2023/06/30 10:39:53;;;;;;;0.52;0.30;;;22.10;93.00;;;;;;5051207;28;20036;-74
2023/06/30 10:42:20;;;;;;;0.17;0.17;;;22.00;93.60;;;;;;5051152;28;20045;-75
2023/06/30 10:44:50;;;;;;;3.70;0.77;;;21.90;93.20;;;;;;5051272;28;20075;-75
2023/06/30 10:47:22;;;;;;;0.00;0.00;;;22.00;92.50;;;;;;5043781;28;20049;-75
2023/06/30 10:49:53;;;;;;;0.38;0.20;;;22.30;93.10;;;;;;5050746;28;20500;-75
2023/06/30 10:52:30;;;;;;;0.00;0.00;;;22.60;92.60;;;;;;5051452;28;20534;-74
2023/06/30 10:55:05;;;;;;;0.32;0.32;;;22.50;92.90;;;;;;5050733;28;20029;-74
2023/06/30 10:57:36;;;;;;;0.75;0.57;;;22.90;92.90;;;;;;5051375;28;20037;-75
2023/06/30 11:00:04;;;;;;;3.30;0.98;;;23.00;92.90;;;;;;5051201;28;20030;-74
2023/06/30 11:02:32;;;;;;;1.17;0.60;;;22.30;93.30;;;;;;5051109;28;20036;-74
2023/06/30 11:05:20;;;;;;;6.47;1.08;;;22.40;93.60;;;;;;5051109;28;20029;-74
2023/06/30 11:07:52;;;;;;;4.35;0.57;;;22.10;93.90;;;;;;5039369;28;20025;-74
2023/06/30 11:10:35;;;;;;;1.08;0.38;;;22.30;94.90;;;;;;5051186;28;20025;-76
2023/06/30 11:13:08;;;;;;;1.98;1.08;;;22.40;94.60;;;;;;5051280;28;20083;-75
2023/06/30 11:15:35;;;;;;;1.65;0.60;;;22.40;94.00;;;;;;5049593;28;20033;-75
2023/06/30 11:18:03;;;;;;;0.25;0.25;;;22.70;93.40;;;;;;5050112;28;20120;-80
2023/06/30 11:20:30;;;;;;;1.95;0.88;;;22.30;94.00;;;;;;5050532;28;20029;-79
2023/06/30 11:23:01;;;;;;;0.68;0.30;;;22.40;94.10;;;;;;5053367;28;20068;-82
2023/06/30 11:25:31;;;;;;;;;;;22.10;94.50;;;;;;5055563;28;20087;-78
2023/06/30 11:27:58;;;;;;;6.63;1.08;;;22.00;95.20;;;;;;5054221;28;19962;-79
2023/06/30 11:30:24;;;;;;;0.82;0.65;;;22.00;93.90;;;;;;5055281;28;20029;-79
2023/06/30 11:32:58;;;;;;;0.30;0.30;;;22.10;94.20;;;;;;5054798;28;20146;-79
2023/06/30 11:35:26;;;;;;;0.47;0.35;;;22.30;94.00;;;;;;5054767;28;20036;-78
2023/06/30 11:37:53;;;;;;;0.10;0.10;;;22.40;94.30;;;;;;5054577;28;20093;-78
2023/06/30 11:40:21;;;;;;;4.22;0.57;;;22.90;94.20;;;;;;5054888;28;20090;-78
2023/06/30 11:42:47;;;;;;;2.90;1.38;;;22.70;93.10;;;;;;5054590;28;20504;-78
2023/06/30 11:45:19;;;;;;;0.38;0.30;;;22.70;92.60;;;;;;5055329;28;20021;-78
2023/06/30 11:47:51;;;;;;;0.32;0.30;;;23.10;93.90;;;;;;5055372;28;20028;-77
2023/06/30 11:50:18;;;;;;;;;;;23.60;93.40;;;;;;5054993;28;20029;-81
2023/06/30 11:52:46;;;;;;;0.40;0.20;;;23.20;93.50;;;;;;5055564;28;19916;-80
2023/06/30 11:55:14;;;;;;;0.88;0.70;;;23.20;92.90;;;;;;5055293;28;20032;-81
2023/06/30 11:57:41;;;;;;;0.75;0.65;;;23.30;92.90;;;;;;5055837;28;20027;-81
2023/06/30 12:00:11;;;;;;;0.98;0.63;;;23.20;93.00;;;;;;5054900;28;20032;-82
2023/06/30 12:02:57;;;;;;;5.20;1.10;;;23.60;92.30;;;;;;5055697;28;20045;-81
2023/06/30 12:05:25;;;;;;;0.65;0.60;;;23.50;91.70;;;;;;5055166;28;20112;-80
2023/06/30 12:07:55;;;;;;;0.52;0.38;;;23.30;91.90;;;;;;5055380;28;20017;-80
2023/06/30 12:10:22;;;;;;;0.90;0.40;;;23.60;92.00;;;;;;5055346;28;20033;-83
2023/06/30 12:12:56;;;;;;;0.88;0.57;;;23.80;91.70;;;;;;5055336;28;20385;-82
2023/06/30 12:15:22;;;;;;;4.47;1.15;;;23.60;91.70;;;;;;5054622;28;20037;-80
2023/06/30 12:17:52;;;;;;;0.10;0.10;;;22.90;91.60;;;;;;5054887;28;20041;-81
2023/06/30 12:20:22;;;;;;;0.35;0.25;;;23.10;92.40;;;;;;5055037;28;20025;-81
2023/06/30 12:22:50;;;;;;;0.55;0.17;;;23.50;92.50;;;;;;5054862;28;20036;-82
2023/06/30 12:25:18;;;;;;;0.40;0.40;;;23.80;92.10;;;;;;5054639;28;20024;-81
2023/06/30 12:27:43;;;;;;;2.10;1.65;;;23.90;92.70;;;;;;5054382;28;20021;-79
2023/06/30 12:30:19;;;;;;;1.05;0.73;;;24.30;92.80;;;;;;5050683;28;20116;-81
2023/06/30 12:32:46;;;;;;;0.40;0.30;;;24.10;92.20;;;;;;5054300;28;20017;-81
2023/06/30 12:35:13;;;;;;;0.70;0.52;;;23.90;92.50;;;;;;5052593;28;20064;-81
2023/06/30 12:37:43;;;;;;;0.10;0.10;;;24.00;92.40;;;;;;5054527;28;20502;-80
2023/06/30 12:40:09;;;;;;;0.98;0.68;;;24.20;92.60;;;;;;5053349;28;20025;-82
2023/06/30 12:42:36;;;;;;;0.25;0.22;;;24.40;92.10;;;;;;5054278;28;20048;-79
2023/06/30 12:45:03;;;;;;;0.03;0.03;;;24.10;91.60;;;;;;5054367;28;20091;-80
2023/06/30 12:47:28;;;;;;;0.30;0.30;;;24.40;92.30;;;;;;5054103;28;20052;-80
2023/06/30 12:49:54;;;;;;;0.28;0.13;;;24.80;92.20;;;;;;5054157;28;20465;-81